Time;durP1;ratioP1;P1;durP2;ratioP2;P2;SDS_P1;SDS_P2;PMS_P1;PMS_P2;Temp;Humidity;BMP_temperature;BMP_pressure;BME280_temperature;BME280_humidity;BME280_pressure;Samples;Min_cycle;Max_cycle;Signal;HPM_P1;HPM_P2
2021/06/24 00:01:23;;;;;;;4.28;3.78;;;21.90;76.60;;;;;;5102223;28;27320;-59
2021/06/24 00:04:07;;;;;;;3.95;3.50;;;21.90;76.90;;;;;;5105968;28;27422;-59
2021/06/24 00:06:52;;;;;;;3.80;3.40;;;21.90;76.50;;;;;;5105508;28;27336;-61
2021/06/24 00:09:36;;;;;;;3.53;3.22;;;21.90;76.60;;;;;;5105877;28;27379;-59
2021/06/24 00:12:22;;;;;;;4.45;3.35;;;21.80;76.50;;;;;;5105663;28;28033;-61
2021/06/24 00:15:07;;;;;;;5.15;3.00;;;21.80;77.50;;;;;;5106026;28;27411;-59
2021/06/24 00:17:51;;;;;;;2.92;2.65;;;21.80;77.40;;;;;;5105938;28;27406;-59
2021/06/24 00:20:37;;;;;;;3.17;2.88;;;21.80;77.10;;;;;;5105333;28;27329;-59
2021/06/24 00:23:21;;;;;;;2.97;2.40;;;21.80;77.50;;;;;;5105688;28;27336;-59
2021/06/24 00:26:06;;;;;;;2.75;2.50;;;21.80;78.90;;;;;;5105507;28;27418;-59
2021/06/24 00:28:50;;;;;;;2.60;2.40;;;21.80;77.40;;;;;;5105874;28;27332;-59
2021/06/24 00:31:35;;;;;;;4.97;2.83;;;21.80;77.50;;;;;;5104799;28;27401;-59
2021/06/24 00:34:19;;;;;;;3.00;2.70;;;21.80;77.70;;;;;;5105779;28;28000;-59
2021/06/24 00:37:04;;;;;;;7.47;3.35;;;21.70;78.00;;;;;;5105415;28;27404;-59
2021/06/24 00:39:48;;;;;;;3.30;2.22;;;21.70;77.20;;;;;;5104638;28;27423;-59
2021/06/24 00:42:33;;;;;;;5.10;2.33;;;21.70;77.50;;;;;;5105260;28;27490;-58
2021/06/24 00:45:18;;;;;;;3.88;2.47;;;21.70;77.40;;;;;;5087132;28;28026;-59
2021/06/24 00:48:04;;;;;;;2.53;2.30;;;21.70;76.80;;;;;;5104698;28;27539;-58
2021/06/24 00:50:49;;;;;;;3.58;2.05;;;21.70;77.20;;;;;;5105477;28;27474;-58
2021/06/24 00:53:33;;;;;;;2.38;2.03;;;21.70;76.70;;;;;;5104792;28;27495;-58
2021/06/24 00:56:30;;;;;;;4.10;2.35;;;21.60;77.50;;;;;;5086777;28;27391;-59
2021/06/24 00:59:15;;;;;;;2.70;2.22;;;21.60;77.30;;;;;;5101988;28;27448;-58
2021/06/24 01:02:01;;;;;;;3.13;2.30;;;21.60;78.30;;;;;;5105325;28;27313;-59
2021/06/24 01:04:45;;;;;;;4.72;2.17;;;21.60;78.20;;;;;;5102680;28;27383;-59
2021/06/24 01:07:30;;;;;;;4.43;2.03;;;21.50;78.70;;;;;;5100780;28;27333;-59
2021/06/24 01:10:35;;;;;;;4.15;1.95;;;21.50;78.10;;;;;;5101595;28;27370;-58
2021/06/24 01:13:20;;;;;;;4.18;2.20;;;21.50;78.00;;;;;;5101691;28;27324;-58
2021/06/24 01:16:05;;;;;;;2.85;1.88;;;21.50;78.00;;;;;;5101071;28;27327;-58
2021/06/24 01:18:49;;;;;;;3.05;1.60;;;21.50;77.10;;;;;;5104994;28;27401;-58
2021/06/24 01:21:34;;;;;;;6.45;1.65;;;21.50;77.70;;;;;;5100603;28;27497;-58
2021/06/24 01:24:20;;;;;;;2.13;1.60;;;21.40;78.20;;;;;;5105011;28;27391;-59
2021/06/24 01:27:05;;;;;;;2.55;1.45;;;21.40;78.30;;;;;;5101663;28;27442;-59
2021/06/24 01:29:52;;;;;;;1.70;1.60;;;21.40;77.60;;;;;;5100769;28;27861;-58
2021/06/24 01:32:37;;;;;;;2.67;1.52;;;21.30;77.30;;;;;;5087851;28;27337;-58
2021/06/24 01:35:23;;;;;;;2.55;1.70;;;21.30;77.80;;;;;;5104835;28;27312;-58
2021/06/24 01:38:09;;;;;;;3.00;1.80;;;21.30;78.90;;;;;;5103988;28;27627;-59
2021/06/24 01:41:04;;;;;;;2.22;1.80;;;21.30;78.00;;;;;;5100668;28;27471;-59
2021/06/24 01:43:49;;;;;;;3.00;1.42;;;21.20;77.00;;;;;;5101074;28;27437;-58
2021/06/24 01:46:34;;;;;;;2.38;1.63;;;21.20;77.30;;;;;;5101541;28;27455;-58
2021/06/24 01:49:19;;;;;;;1.45;1.35;;;21.20;77.90;;;;;;5103751;28;27419;-58
2021/06/24 01:52:05;;;;;;;2.58;1.30;;;21.20;77.80;;;;;;5099593;28;27390;-58
2021/06/24 01:54:50;;;;;;;3.95;1.60;;;21.20;78.10;;;;;;5085990;28;27462;-59
2021/06/24 01:57:36;;;;;;;2.92;1.23;;;21.10;77.60;;;;;;5101660;28;27518;-58
2021/06/24 02:00:26;;;;;;;4.07;1.50;;;21.10;78.10;;;;;;5100961;28;27384;-59
2021/06/24 02:03:27;;;;;;;2.38;1.27;;;21.10;78.70;;;;;;5101095;28;27462;-58
2021/06/24 02:06:11;;;;;;;3.60;1.40;;;21.10;78.00;;;;;;5103275;28;27414;-58
2021/06/24 02:08:58;;;;;;;1.75;1.10;;;21.10;78.30;;;;;;5101142;28;27458;-58
2021/06/24 02:12:02;;;;;;;4.00;1.45;;;21.10;77.70;;;;;;5103775;28;27407;-58
2021/06/24 02:15:01;;;;;;;3.38;1.40;;;21.10;78.10;;;;;;5104035;28;27390;-58
2021/06/24 02:17:46;;;;;;;1.40;1.30;;;21.00;77.40;;;;;;5099851;28;27324;-58
2021/06/24 02:20:31;;;;;;;3.13;1.60;;;21.00;78.80;;;;;;5101051;28;27386;-57
2021/06/24 02:23:25;;;;;;;1.90;1.30;;;21.00;78.80;;;;;;5099941;28;27390;-58
2021/06/24 02:26:21;;;;;;;1.08;0.98;;;21.00;78.40;;;;;;5103220;28;27398;-58
2021/06/24 02:29:13;;;;;;;1.98;1.10;;;21.00;77.80;;;;;;5100698;28;27405;-59
2021/06/24 02:31:58;;;;;;;1.35;1.23;;;21.00;78.10;;;;;;5099500;28;27438;-58
2021/06/24 02:35:07;;;;;;;3.78;1.60;;;21.00;78.70;;;;;;5103855;28;27320;-58
2021/06/24 02:38:04;;;;;;;5.55;1.20;;;21.00;78.10;;;;;;5087259;28;27852;-58
2021/06/24 02:41:00;;;;;;;1.50;1.20;;;21.00;78.20;;;;;;5100647;28;27456;-58
2021/06/24 02:43:47;;;;;;;2.95;1.50;;;21.00;78.40;;;;;;5100656;28;27406;-58
2021/06/24 02:46:32;;;;;;;1.98;1.02;;;21.00;78.50;;;;;;5100385;28;27453;-58
2021/06/24 02:49:17;;;;;;;1.30;1.20;;;20.90;78.00;;;;;;5100497;28;27872;-58
2021/06/24 02:52:15;;;;;;;1.30;1.00;;;20.90;78.00;;;;;;5099657;28;27468;-58
2021/06/24 02:55:02;;;;;;;5.90;1.48;;;20.90;78.20;;;;;;5099419;28;27372;-58
2021/06/24 02:58:07;;;;;;;1.88;1.30;;;20.90;78.40;;;;;;5100484;28;27354;-58
2021/06/24 03:01:18;;;;;;;8.15;1.20;;;20.90;78.30;;;;;;5100090;28;27479;-58
2021/06/24 03:04:41;;;;;;;1.23;1.10;;;20.90;78.50;;;;;;5102132;28;27438;-58
2021/06/24 03:07:26;;;;;;;1.95;1.40;;;20.90;78.40;;;;;;5103108;28;27415;-59
2021/06/24 03:10:45;;;;;;;5.30;1.55;;;20.90;78.80;;;;;;5084756;28;27344;-58
2021/06/24 03:13:31;;;;;;;1.58;1.30;;;20.90;79.00;;;;;;5102719;28;27394;-59
2021/06/24 03:16:18;;;;;;;4.90;1.50;;;20.90;79.60;;;;;;5102848;28;27581;-59
2021/06/24 03:19:03;;;;;;;1.95;1.23;;;20.90;79.30;;;;;;5106996;28;27332;-58
2021/06/24 03:21:49;;;;;;;2.30;1.10;;;20.80;78.50;;;;;;5102832;28;27391;-59
2021/06/24 03:24:33;;;;;;;1.63;1.42;;;20.80;79.10;;;;;;5105677;28;27357;-59
2021/06/24 03:27:19;;;;;;;1.70;1.02;;;20.80;79.30;;;;;;5103210;28;27488;-58
2021/06/24 03:30:24;;;;;;;5.63;1.40;;;20.80;79.00;;;;;;5103481;28;27323;-58
2021/06/24 03:33:09;;;;;;;1.30;1.15;;;20.80;78.50;;;;;;5102225;28;27414;-59
2021/06/24 03:35:54;;;;;;;4.20;1.10;;;20.80;78.70;;;;;;5102557;28;27447;-59
2021/06/24 03:38:44;;;;;;;1.25;1.08;;;20.80;78.30;;;;;;5104620;28;27450;-58
2021/06/24 03:41:30;;;;;;;2.55;1.20;;;20.80;78.60;;;;;;5102031;28;27383;-58
2021/06/24 03:44:17;;;;;;;1.95;1.20;;;20.80;78.70;;;;;;5102572;28;27395;-58
2021/06/24 03:47:03;;;;;;;3.00;1.33;;;20.80;79.40;;;;;;5106164;28;27910;-58
2021/06/24 03:49:48;;;;;;;1.75;1.30;;;20.80;78.70;;;;;;5102349;28;27505;-58
2021/06/24 03:52:33;;;;;;;1.60;1.50;;;20.80;79.10;;;;;;5102002;28;27383;-59
2021/06/24 03:55:19;;;;;;;3.53;1.25;;;20.80;79.00;;;;;;5087783;28;27413;-58
2021/06/24 03:58:05;;;;;;;2.75;1.17;;;20.80;78.90;;;;;;5101908;28;27434;-58
2021/06/24 04:00:51;;;;;;;1.45;1.35;;;20.80;79.10;;;;;;5087648;28;27420;-58
2021/06/24 04:03:35;;;;;;;2.95;1.30;;;20.80;79.40;;;;;;5101971;28;27469;-58
2021/06/24 04:06:23;;;;;;;4.13;1.30;;;20.80;79.60;;;;;;5102777;28;27448;-58
2021/06/24 04:09:11;;;;;;;3.75;2.00;;;20.80;80.20;;;;;;5101913;28;27410;-58
2021/06/24 04:11:57;;;;;;;2.13;1.40;;;20.70;80.10;;;;;;5101752;28;27352;-58
2021/06/24 04:15:02;;;;;;;3.05;1.17;;;20.80;80.80;;;;;;5103104;28;27366;-58
2021/06/24 04:17:53;;;;;;;1.30;1.20;;;20.80;80.10;;;;;;5101755;28;27315;-59
2021/06/24 04:20:38;;;;;;;1.17;1.08;;;20.80;80.10;;;;;;5101604;28;27934;-59
2021/06/24 04:23:26;;;;;;;4.85;1.58;;;20.70;80.10;;;;;;5101833;28;27451;-59
2021/06/24 04:26:15;;;;;;;3.25;1.40;;;20.80;80.70;;;;;;5101623;28;27418;-59
2021/06/24 04:29:00;;;;;;;2.65;1.50;;;20.70;80.80;;;;;;5087402;28;27426;-59
2021/06/24 04:31:45;;;;;;;1.40;1.30;;;20.70;80.60;;;;;;5101659;28;27547;-59
2021/06/24 04:34:30;;;;;;;2.15;1.60;;;20.80;80.90;;;;;;5101766;28;27471;-59
2021/06/24 04:37:26;;;;;;;3.08;1.67;;;20.80;81.70;;;;;;5101106;28;27403;-60
2021/06/24 04:40:11;;;;;;;4.43;1.90;;;20.80;81.10;;;;;;5101354;28;27493;-58
2021/06/24 04:43:05;;;;;;;4.20;2.15;;;20.80;80.80;;;;;;5103947;28;27475;-58
2021/06/24 04:45:53;;;;;;;6.70;2.55;;;20.80;80.90;;;;;;5101543;28;27471;-59
2021/06/24 04:48:37;;;;;;;2.33;1.80;;;20.80;81.20;;;;;;5105644;28;27462;-59
2021/06/24 04:51:54;;;;;;;3.67;1.90;;;20.80;82.10;;;;;;5095313;27;27443;-58
2021/06/24 04:54:52;;;;;;;2.00;1.50;;;20.90;81.40;;;;;;5101858;28;27894;-58
2021/06/24 04:57:37;;;;;;;2.33;1.88;;;20.90;80.60;;;;;;5105289;28;27340;-58
2021/06/24 05:00:42;;;;;;;2.95;1.60;;;20.90;81.50;;;;;;5103838;28;27519;-59
2021/06/24 05:03:27;;;;;;;2.08;1.88;;;21.00;81.40;;;;;;5105113;28;27344;-59
2021/06/24 05:06:17;;;;;;;5.88;1.70;;;20.90;81.20;;;;;;5101934;28;27922;-58
2021/06/24 05:09:04;;;;;;;4.07;1.42;;;20.90;81.60;;;;;;5086847;28;27423;-58
2021/06/24 05:11:49;;;;;;;2.00;1.40;;;20.90;81.00;;;;;;5101779;28;27526;-58
2021/06/24 05:14:33;;;;;;;5.07;1.45;;;20.90;81.10;;;;;;5101130;28;27450;-58
2021/06/24 05:17:18;;;;;;;1.67;1.58;;;20.90;81.20;;;;;;5104349;28;27984;-59
2021/06/24 05:20:05;;;;;;;2.50;1.50;;;20.90;80.70;;;;;;5105032;28;27441;-59
2021/06/24 05:22:50;;;;;;;1.98;1.58;;;21.00;81.00;;;;;;5104123;28;27457;-59
2021/06/24 05:25:37;;;;;;;3.80;1.50;;;20.90;81.50;;;;;;5104174;28;27367;-58
2021/06/24 05:28:21;;;;;;;2.70;1.50;;;20.90;80.80;;;;;;5104175;28;27332;-59
2021/06/24 05:31:06;;;;;;;1.60;1.50;;;20.90;80.90;;;;;;5104963;28;27348;-59
2021/06/24 05:33:51;;;;;;;1.98;1.55;;;20.80;80.70;;;;;;5104640;28;27322;-59
2021/06/24 05:36:37;;;;;;;1.50;1.23;;;20.80;80.30;;;;;;5086214;28;27329;-59
2021/06/24 05:39:24;;;;;;;2.10;1.17;;;20.80;80.30;;;;;;5089231;28;27959;-60
2021/06/24 05:42:08;;;;;;;4.57;1.80;;;20.90;80.70;;;;;;5104766;28;27340;-60
2021/06/24 05:44:53;;;;;;;4.13;1.92;;;20.80;80.70;;;;;;5100716;28;27403;-60
2021/06/24 05:47:41;;;;;;;4.85;1.83;;;20.90;80.50;;;;;;5086204;28;27403;-59
2021/06/24 05:50:27;;;;;;;3.80;1.60;;;21.00;81.40;;;;;;5102580;28;27419;-60
2021/06/24 05:53:12;;;;;;;4.70;1.92;;;21.20;77.30;;;;;;5101413;28;27419;-59
2021/06/24 05:55:58;;;;;;;2.38;1.63;;;21.40;76.70;;;;;;5104963;28;27482;-60
2021/06/24 05:58:46;;;;;;;3.13;1.75;;;21.60;78.30;;;;;;5105197;28;27407;-60
2021/06/24 06:01:30;;;;;;;2.97;1.70;;;21.80;76.30;;;;;;5104766;28;27379;-59
2021/06/24 06:04:16;;;;;;;4.43;2.08;;;22.00;75.80;;;;;;5104801;28;27495;-60
2021/06/24 06:07:00;;;;;;;1.70;1.60;;;22.20;75.40;;;;;;5104810;28;27356;-60
2021/06/24 06:09:45;;;;;;;4.93;1.20;;;22.50;75.30;;;;;;5105000;28;27320;-60
2021/06/24 06:12:30;;;;;;;2.08;1.30;;;22.60;74.80;;;;;;5104531;28;27355;-61
2021/06/24 06:15:18;;;;;;;2.05;1.40;;;22.90;74.20;;;;;;5104631;28;27538;-60
2021/06/24 06:18:14;;;;;;;1.73;1.20;;;23.00;73.60;;;;;;5101414;28;27411;-60
2021/06/24 06:21:04;;;;;;;1.27;1.15;;;23.20;73.20;;;;;;5086143;28;27327;-61
2021/06/24 06:23:52;;;;;;;2.22;1.30;;;23.40;73.30;;;;;;5103742;28;27387;-60
2021/06/24 06:26:39;;;;;;;2.67;1.50;;;23.40;73.20;;;;;;5104532;28;27390;-59
2021/06/24 06:29:24;;;;;;;2.42;1.42;;;23.40;72.70;;;;;;5104500;28;27422;-60
2021/06/24 06:32:11;;;;;;;2.83;1.92;;;23.40;73.00;;;;;;5103926;28;27326;-60
2021/06/24 06:34:56;;;;;;;1.50;1.40;;;23.40;73.80;;;;;;5101492;28;28006;-60
2021/06/24 06:37:40;;;;;;;2.78;1.48;;;23.40;74.30;;;;;;5103770;28;27643;-58
2021/06/24 06:40:29;;;;;;;1.77;1.45;;;23.40;74.60;;;;;;5107922;28;27440;-60
2021/06/24 06:43:20;;;;;;;2.05;1.40;;;23.50;74.50;;;;;;5108005;28;27449;-60
2021/06/24 06:46:07;;;;;;;2.42;1.70;;;23.50;74.50;;;;;;5104880;28;27462;-60
2021/06/24 06:48:53;;;;;;;1.45;1.30;;;23.40;74.80;;;;;;5108271;28;27468;-59
2021/06/24 06:51:38;;;;;;;1.60;1.50;;;23.40;74.80;;;;;;5107927;28;27477;-59
2021/06/24 06:54:23;;;;;;;3.58;1.73;;;23.50;75.20;;;;;;5103685;28;27371;-59
2021/06/24 06:57:08;;;;;;;2.00;1.50;;;23.50;74.80;;;;;;5107507;28;27422;-60
2021/06/24 06:59:52;;;;;;;7.45;1.63;;;23.50;74.80;;;;;;5106602;28;27449;-59
2021/06/24 07:02:37;;;;;;;2.10;1.40;;;23.60;74.60;;;;;;5107742;28;27419;-60
2021/06/24 07:05:22;;;;;;;3.42;1.40;;;23.70;74.30;;;;;;5107613;28;27462;-60
2021/06/24 07:08:06;;;;;;;1.38;1.23;;;23.90;74.40;;;;;;5107566;28;27415;-59
2021/06/24 07:10:51;;;;;;;4.20;1.42;;;24.10;73.30;;;;;;5107558;28;27418;-59
2021/06/24 07:13:36;;;;;;;1.67;1.52;;;24.30;72.50;;;;;;5107317;28;27422;-59
2021/06/24 07:16:20;;;;;;;5.50;1.80;;;24.40;71.90;;;;;;5107436;28;27445;-59
2021/06/24 07:19:08;;;;;;;1.92;1.50;;;24.40;71.50;;;;;;5107633;28;27418;-59
2021/06/24 07:21:52;;;;;;;2.40;1.85;;;24.60;71.50;;;;;;5107315;28;27391;-60
2021/06/24 07:24:37;;;;;;;3.08;1.73;;;24.80;71.90;;;;;;5107156;28;27529;-59
2021/06/24 07:27:21;;;;;;;2.47;1.48;;;24.90;71.80;;;;;;5107340;28;27474;-59
2021/06/24 07:30:07;;;;;;;2.85;1.73;;;24.90;71.60;;;;;;5107277;28;27476;-59
2021/06/24 07:32:51;;;;;;;2.47;2.00;;;24.80;72.10;;;;;;5107033;28;27612;-59
2021/06/24 07:35:36;;;;;;;2.08;1.83;;;24.80;72.80;;;;;;5107493;28;27518;-59
2021/06/24 07:38:20;;;;;;;2.35;2.15;;;24.70;73.20;;;;;;5106436;28;27445;-59
2021/06/24 07:41:05;;;;;;;2.00;1.58;;;24.60;73.00;;;;;;5103242;28;27484;-59
2021/06/24 07:43:52;;;;;;;1.88;1.77;;;24.50;73.10;;;;;;5103705;28;27588;-59
2021/06/24 07:46:37;;;;;;;1.88;1.70;;;24.40;73.30;;;;;;5104000;28;26899;-58
2021/06/24 07:49:23;;;;;;;1.92;1.60;;;24.30;73.80;;;;;;5106674;27;27428;-59
2021/06/24 07:52:07;;;;;;;2.78;1.85;;;24.20;73.00;;;;;;5105807;28;27654;-58
2021/06/24 07:54:52;;;;;;;3.25;2.40;;;24.20;73.30;;;;;;5107071;28;27593;-59
2021/06/24 07:57:37;;;;;;;4.55;2.50;;;24.20;74.30;;;;;;5107146;28;27405;-59
2021/06/24 08:00:21;;;;;;;4.15;1.92;;;24.20;74.30;;;;;;5102722;28;27462;-60
2021/06/24 08:03:07;;;;;;;3.65;1.95;;;24.30;73.90;;;;;;5106667;28;27413;-59
2021/06/24 08:05:51;;;;;;;1.98;1.85;;;24.30;73.50;;;;;;5106584;28;27446;-59
2021/06/24 08:08:36;;;;;;;2.40;2.20;;;24.40;73.50;;;;;;5106684;28;27416;-59
2021/06/24 08:11:21;;;;;;;2.53;2.30;;;24.40;73.20;;;;;;5106871;28;27381;-58
2021/06/24 08:14:05;;;;;;;2.03;1.80;;;24.40;72.50;;;;;;5102441;28;27431;-59
2021/06/24 08:16:51;;;;;;;2.45;2.03;;;24.40;72.10;;;;;;5106419;28;27529;-59
2021/06/24 08:19:35;;;;;;;3.58;2.25;;;24.40;72.20;;;;;;5106140;28;27407;-59
2021/06/24 08:22:20;;;;;;;2.17;1.90;;;24.40;70.70;;;;;;5106721;28;27456;-59
2021/06/24 08:25:06;;;;;;;2.13;1.90;;;24.40;70.50;;;;;;5106314;28;27432;-59
2021/06/24 08:27:51;;;;;;;2.50;1.90;;;24.40;70.90;;;;;;5106619;28;27446;-59
2021/06/24 08:30:37;;;;;;;2.35;1.55;;;24.60;72.20;;;;;;5105676;28;27493;-59
2021/06/24 08:33:22;;;;;;;1.95;1.67;;;24.90;71.30;;;;;;5102787;28;27510;-59
2021/06/24 08:36:07;;;;;;;1.90;1.35;;;25.00;68.40;;;;;;5106234;28;27442;-59
2021/06/24 08:38:52;;;;;;;1.85;1.38;;;25.00;68.10;;;;;;5105450;28;27413;-59
2021/06/24 08:41:37;;;;;;;3.97;1.27;;;25.00;67.10;;;;;;5105724;28;27417;-59
2021/06/24 08:44:22;;;;;;;2.03;1.38;;;24.90;68.00;;;;;;5106371;28;27470;-59
2021/06/24 08:47:07;;;;;;;1.45;1.30;;;24.80;67.50;;;;;;5105475;28;27596;-57
2021/06/24 08:49:52;;;;;;;2.38;1.65;;;24.80;68.00;;;;;;5106281;28;27510;-57
2021/06/24 08:52:37;;;;;;;2.70;1.48;;;24.80;68.30;;;;;;5105149;28;27505;-57
2021/06/24 08:55:22;;;;;;;1.60;1.40;;;24.80;68.50;;;;;;5102902;28;27384;-57
2021/06/24 08:58:07;;;;;;;2.55;1.50;;;24.80;69.00;;;;;;5106098;28;27922;-56
2021/06/24 09:00:53;;;;;;;2.63;1.52;;;24.90;69.40;;;;;;5105257;27;27405;-58
2021/06/24 09:03:39;;;;;;;2.10;1.50;;;25.10;68.40;;;;;;5105807;28;27414;-58
2021/06/24 09:06:34;;;;;;;5.18;1.88;;;25.50;66.70;;;;;;5106027;28;27397;-58
2021/06/24 09:09:27;;;;;;;4.70;1.80;;;25.80;65.80;;;;;;5105013;28;27431;-59
2021/06/24 09:12:11;;;;;;;1.38;1.13;;;26.10;67.30;;;;;;5105597;28;27497;-59
2021/06/24 09:15:00;;;;;;;1.55;1.45;;;26.20;63.80;;;;;;5102689;28;27603;-59
2021/06/24 09:17:45;;;;;;;1.95;1.75;;;26.20;64.90;;;;;;5105868;28;27444;-58
2021/06/24 09:20:32;;;;;;;1.80;1.42;;;26.40;64.50;;;;;;5105755;28;28087;-59
2021/06/24 09:23:18;;;;;;;1.63;1.38;;;26.50;64.50;;;;;;5105427;28;27417;-58
2021/06/24 09:26:13;;;;;;;2.00;1.65;;;26.80;63.70;;;;;;5105663;28;27386;-59
2021/06/24 09:28:59;;;;;;;1.65;1.27;;;27.10;63.30;;;;;;5105614;28;27358;-59
2021/06/24 09:31:44;;;;;;;1.52;1.42;;;27.20;62.80;;;;;;5105500;28;27860;-59
2021/06/24 09:34:29;;;;;;;1.67;1.50;;;27.20;62.10;;;;;;5105207;28;27367;-58
2021/06/24 09:37:16;;;;;;;2.85;1.75;;;27.20;60.50;;;;;;5105238;28;27419;-59
2021/06/24 09:40:11;;;;;;;1.70;1.40;;;27.10;62.20;;;;;;5104770;28;27474;-58
2021/06/24 09:42:55;;;;;;;1.45;1.35;;;27.00;61.50;;;;;;5101800;28;27375;-59
2021/06/24 09:45:44;;;;;;;1.70;1.50;;;26.80;62.00;;;;;;5105024;28;27487;-59
2021/06/24 09:48:39;;;;;;;5.18;2.45;;;26.60;61.90;;;;;;5104257;28;27497;-60
2021/06/24 09:51:33;;;;;;;1.42;1.33;;;26.50;62.30;;;;;;5104936;28;27481;-58
2021/06/24 09:54:18;;;;;;;1.67;1.38;;;26.30;64.20;;;;;;5104576;28;27461;-59
2021/06/24 09:57:03;;;;;;;3.40;1.35;;;26.20;64.00;;;;;;5104823;28;27411;-59
2021/06/24 09:59:49;;;;;;;2.30;1.27;;;26.20;64.30;;;;;;5105214;28;27432;-59
2021/06/24 10:03:13;;;;;;;2.60;1.73;;;26.10;65.30;;;;;;5101052;28;27538;-59
2021/06/24 10:05:57;;;;;;;1.77;1.67;;;26.20;64.10;;;;;;5082209;28;27982;-60
2021/06/24 10:08:42;;;;;;;1.80;1.60;;;26.30;64.70;;;;;;5082646;28;27575;-58
2021/06/24 10:11:27;;;;;;;2.05;1.30;;;26.50;65.50;;;;;;5079540;28;27593;-58
2021/06/24 10:14:12;;;;;;;1.63;1.30;;;26.50;63.40;;;;;;5082056;28;27634;-58
2021/06/24 10:16:58;;;;;;;1.83;1.67;;;26.50;63.60;;;;;;5082428;28;27518;-58
2021/06/24 10:19:44;;;;;;;2.00;1.77;;;26.50;62.40;;;;;;5079275;28;27602;-59
2021/06/24 10:22:30;;;;;;;4.35;2.13;;;26.40;62.60;;;;;;5082473;28;27602;-59
2021/06/24 10:25:15;;;;;;;5.53;1.80;;;26.40;63.20;;;;;;5082774;28;27528;-59
2021/06/24 10:28:01;;;;;;;1.70;1.60;;;26.30;62.70;;;;;;5082677;28;27411;-59
2021/06/24 10:30:53;;;;;;;1.52;1.42;;;26.30;63.70;;;;;;5082416;28;27377;-62
2021/06/24 10:33:55;;;;;;;1.10;1.08;;;26.40;64.90;;;;;;5068014;28;27389;-60
2021/06/24 10:37:14;;;;;;;3.50;1.20;;;26.60;65.70;;;;;;5082282;28;27522;-61
2021/06/24 10:40:32;;;;;;;3.17;1.00;;;26.80;64.30;;;;;;5065269;28;27936;-60
2021/06/24 10:43:24;;;;;;;1.50;0.82;;;26.80;60.70;;;;;;5097023;28;27394;-61
2021/06/24 10:46:14;;;;;;;2.30;1.15;;;26.90;60.20;;;;;;5089967;28;27352;-60
2021/06/24 10:49:27;;;;;;;1.30;1.10;;;26.90;61.90;;;;;;5103869;28;27373;-59
2021/06/24 10:52:29;;;;;;;1.47;1.33;;;27.10;63.10;;;;;;5103391;28;27435;-60
2021/06/24 10:55:47;;;;;;;1.63;1.10;;;27.30;62.10;;;;;;5087910;28;27391;-60
2021/06/24 10:58:40;;;;;;;0.88;0.70;;;27.70;63.30;;;;;;5074022;28;27454;-62
2021/06/24 11:01:42;;;;;;;1.42;1.30;;;28.10;64.30;;;;;;5100032;28;27312;-60
2021/06/24 11:04:34;;;;;;;1.52;1.00;;;28.60;61.10;;;;;;5103523;28;27843;-59
2021/06/24 11:07:23;;;;;;;2.28;1.00;;;28.80;59.60;;;;;;5103327;28;27423;-59
2021/06/24 11:10:33;;;;;;;0.77;0.77;;;28.90;59.90;;;;;;5104076;28;27450;-60
2021/06/24 11:13:49;;;;;;;2.72;0.70;;;28.80;58.80;;;;;;5100617;28;27339;-62
2021/06/24 11:16:41;;;;;;;0.73;0.65;;;28.70;57.90;;;;;;5099866;28;27444;-60
2021/06/24 11:19:29;;;;;;;1.75;0.70;;;28.50;58.90;;;;;;5089372;28;27406;-60
2021/06/24 11:22:48;;;;;;;0.95;0.88;;;28.40;59.30;;;;;;5104025;28;27442;-59
2021/06/24 11:26:04;;;;;;;5.65;0.90;;;28.30;59.60;;;;;;5101971;28;27470;-60
2021/06/24 11:29:02;;;;;;;1.98;0.80;;;28.20;59.60;;;;;;5107305;28;27411;-59
2021/06/24 11:32:06;;;;;;;0.70;0.70;;;28.10;59.50;;;;;;5103261;28;27399;-61
2021/06/24 11:38:51;;;;;;;0.82;0.60;;;27.80;58.40;;;;;;5105522;28;27410;-59
2021/06/24 11:42:03;;;;;;;0.60;0.60;;;27.90;59.00;;;;;;5107055;28;27465;-61
2021/06/24 11:44:54;;;;;;;0.80;0.73;;;28.20;59.70;;;;;;5107054;28;27377;-61
2021/06/24 11:47:47;;;;;;;0.80;0.52;;;28.50;58.90;;;;;;5106552;28;27435;-60
2021/06/24 12:00:32;;;;;;;1.30;0.63;;;29.20;56.70;;;;;;5103315;28;27449;-60
2021/06/24 12:03:21;;;;;;;3.95;0.88;;;29.30;57.50;;;;;;5106094;28;27388;-60
2021/06/24 12:06:10;;;;;;;1.55;1.27;;;29.20;56.00;;;;;;5102627;28;27439;-60
2021/06/24 12:09:01;;;;;;;1.27;0.60;;;29.20;55.00;;;;;;5106220;28;27527;-60
2021/06/24 12:11:58;;;;;;;0.82;0.60;;;29.40;56.20;;;;;;5106197;28;27480;-61
2021/06/24 12:14:47;;;;;;;1.48;0.60;;;29.40;56.60;;;;;;5105850;28;27615;-59
2021/06/24 12:17:37;;;;;;;1.45;0.40;;;29.50;56.70;;;;;;5105707;28;28074;-60
2021/06/24 12:20:24;;;;;;;2.20;0.52;;;29.50;55.60;;;;;;5102365;28;27417;-60
2021/06/24 12:23:14;;;;;;;2.63;0.57;;;29.50;54.10;;;;;;5106677;28;27419;-63
2021/06/24 12:26:02;;;;;;;1.70;0.70;;;29.30;55.00;;;;;;5091107;28;27426;-62
2021/06/24 12:28:50;;;;;;;0.95;0.60;;;29.30;55.00;;;;;;5105567;28;27470;-59
2021/06/24 12:31:37;;;;;;;0.82;0.50;;;29.20;54.40;;;;;;5106586;28;27344;-59
2021/06/24 12:34:24;;;;;;;3.92;0.50;;;29.30;54.50;;;;;;5105574;28;27433;-59
2021/06/24 12:37:26;;;;;;;0.90;0.47;;;29.40;57.50;;;;;;5106127;27;27394;-60
2021/06/24 12:40:21;;;;;;;0.52;0.52;;;29.60;55.90;;;;;;5105668;28;27398;-63
2021/06/24 12:43:17;;;;;;;1.42;0.50;;;29.70;53.90;;;;;;5105390;28;27426;-61
2021/06/24 12:46:07;;;;;;;0.63;0.43;;;29.80;55.00;;;;;;5102384;28;27386;-61
2021/06/24 12:48:53;;;;;;;0.43;0.40;;;29.80;54.40;;;;;;5088365;28;27466;-59
2021/06/24 12:51:38;;;;;;;0.82;0.50;;;29.80;52.80;;;;;;5105592;28;27469;-59
2021/06/24 12:54:23;;;;;;;2.38;0.40;;;29.80;52.00;;;;;;5105802;28;27411;-59
2021/06/24 12:57:08;;;;;;;0.40;0.40;;;29.80;51.80;;;;;;5106195;28;27456;-59
2021/06/24 12:59:53;;;;;;;0.70;0.40;;;29.80;54.80;;;;;;5105842;28;27435;-59
2021/06/24 13:02:51;;;;;;;0.80;0.30;;;29.70;53.90;;;;;;5102737;28;27407;-59
2021/06/24 13:05:36;;;;;;;0.65;0.60;;;29.70;54.00;;;;;;5101736;28;27381;-59
2021/06/24 13:08:24;;;;;;;0.68;0.60;;;29.60;54.40;;;;;;5105722;28;27386;-60
2021/06/24 13:11:20;;;;;;;1.17;0.50;;;29.50;53.70;;;;;;5105914;28;27375;-59
2021/06/24 13:14:21;;;;;;;0.55;0.55;;;29.40;54.00;;;;;;5105476;28;27324;-59
2021/06/24 13:17:14;;;;;;;0.32;0.32;;;29.20;54.50;;;;;;5105539;28;27329;-59
2021/06/24 13:19:59;;;;;;;1.60;0.60;;;29.10;54.20;;;;;;5104625;28;27476;-59
2021/06/24 13:22:44;;;;;;;1.08;0.60;;;28.90;54.30;;;;;;5105489;28;27473;-59
2021/06/24 13:25:28;;;;;;;0.73;0.50;;;28.80;55.20;;;;;;5104677;28;27438;-59
2021/06/24 13:28:13;;;;;;;1.02;0.60;;;28.70;55.90;;;;;;5105680;28;27403;-59
2021/06/24 13:30:58;;;;;;;0.68;0.50;;;28.70;55.90;;;;;;5102159;28;27416;-59
2021/06/24 13:33:45;;;;;;;2.60;0.80;;;28.70;54.00;;;;;;5104359;28;26982;-59
2021/06/24 13:36:31;;;;;;;3.50;0.70;;;28.70;53.30;;;;;;5103908;28;28384;-59
2021/06/24 13:39:18;;;;;;;0.82;0.60;;;28.60;53.50;;;;;;5104565;28;27461;-59
2021/06/24 13:42:03;;;;;;;0.68;0.65;;;28.50;53.50;;;;;;5101547;28;27357;-59
2021/06/24 13:44:48;;;;;;;1.45;0.50;;;28.40;53.20;;;;;;5105547;28;27410;-59
2021/06/24 13:47:33;;;;;;;1.23;0.60;;;28.30;53.70;;;;;;5101269;28;27363;-58
2021/06/24 13:50:17;;;;;;;4.43;0.77;;;28.20;54.10;;;;;;5104382;28;27437;-58
2021/06/24 13:53:11;;;;;;;0.73;0.73;;;28.10;54.60;;;;;;5105095;28;27358;-58
2021/06/24 13:55:56;;;;;;;1.42;0.68;;;28.00;54.60;;;;;;5105428;28;27312;-58
2021/06/24 13:58:42;;;;;;;0.60;0.60;;;27.90;54.30;;;;;;5105012;28;27926;-60
2021/06/24 14:01:27;;;;;;;1.75;0.75;;;27.80;54.60;;;;;;5104205;28;27371;-58
2021/06/24 14:04:12;;;;;;;3.40;0.50;;;27.70;54.80;;;;;;5105275;28;27339;-58
2021/06/24 14:07:03;;;;;;;2.45;0.82;;;27.70;55.80;;;;;;5104938;28;27467;-58
2021/06/24 14:09:48;;;;;;;0.88;0.68;;;27.70;55.20;;;;;;5104847;28;27465;-57
2021/06/24 14:12:32;;;;;;;1.90;0.73;;;27.60;56.00;;;;;;5103864;28;27434;-58
2021/06/24 14:15:17;;;;;;;0.85;0.57;;;27.60;56.50;;;;;;5104571;28;27462;-58
2021/06/24 14:18:02;;;;;;;1.50;0.80;;;27.60;56.70;;;;;;5104883;28;27403;-58
2021/06/24 14:20:47;;;;;;;1.38;0.73;;;27.60;56.70;;;;;;5104873;28;27454;-58
2021/06/24 14:23:33;;;;;;;0.90;0.70;;;27.60;56.70;;;;;;5101521;28;27442;-58
2021/06/24 14:26:19;;;;;;;0.70;0.70;;;27.70;57.00;;;;;;5104793;28;27393;-58
2021/06/24 14:29:04;;;;;;;3.17;0.77;;;27.70;57.50;;;;;;5104778;28;27399;-58
2021/06/24 14:31:49;;;;;;;1.90;0.82;;;27.90;57.70;;;;;;5104510;28;27493;-58
2021/06/24 14:34:34;;;;;;;2.45;0.80;;;28.00;57.80;;;;;;5104369;28;27458;-57
2021/06/24 14:37:19;;;;;;;1.00;0.77;;;28.10;58.10;;;;;;5104511;28;27391;-58
2021/06/24 14:40:04;;;;;;;4.60;0.73;;;28.20;58.20;;;;;;5104631;28;27462;-60
2021/06/24 14:42:49;;;;;;;0.82;0.70;;;28.40;58.90;;;;;;5101057;28;27496;-58
2021/06/24 14:45:34;;;;;;;2.47;0.60;;;28.50;58.50;;;;;;5104493;28;27461;-58
2021/06/24 14:48:19;;;;;;;0.77;0.60;;;28.60;57.40;;;;;;5104558;28;27403;-58
2021/06/24 14:51:05;;;;;;;1.40;0.70;;;28.70;58.50;;;;;;5101199;28;27442;-58
2021/06/24 14:53:50;;;;;;;1.70;0.80;;;28.70;57.10;;;;;;5103909;28;27426;-58